sensor_id;sensor_type;location;lat;lon;timestamp;pressure;altitude;pressure_sealevel;temperature;humidity
78373;BME280;67656;52.074;4.758;2023-08-06T00:00:49;100475.22;;;16.19;100.00
78373;BME280;67656;52.074;4.758;2023-08-06T00:05:50;100464.66;;;16.18;100.00
78373;BME280;67656;52.074;4.758;2023-08-06T00:10:50;100475.66;;;16.27;100.00
78373;BME280;67656;52.074;4.758;2023-08-06T00:15:50;100485.63;;;16.24;100.00
78373;BME280;67656;52.074;4.758;2023-08-06T00:20:52;100472.31;;;16.24;100.00
78373;BME280;67656;52.074;4.758;2023-08-06T00:25:52;100470.66;;;16.21;100.00
78373;BME280;67656;52.074;4.758;2023-08-06T00:30:54;100475.41;;;16.16;100.00
78373;BME280;67656;52.074;4.758;2023-08-06T00:35:54;100471.03;;;16.15;100.00
78373;BME280;67656;52.074;4.758;2023-08-06T00:40:54;100475.41;;;16.16;100.00
78373;BME280;67656;52.074;4.758;2023-08-06T00:45:55;100486.06;;;16.16;100.00
78373;BME280;67656;52.074;4.758;2023-08-06T00:50:56;100471.97;;;16.14;100.00
78373;BME280;67656;52.074;4.758;2023-08-06T00:55:56;100476.94;;;16.20;100.00
78373;BME280;67656;52.074;4.758;2023-08-06T01:00:58;100481.66;;;16.31;100.00
78373;BME280;67656;52.074;4.758;2023-08-06T01:05:58;100482.78;;;16.11;100.00
78373;BME280;67656;52.074;4.758;2023-08-06T01:11:18;100479.03;;;16.15;100.00
78373;BME280;67656;52.074;4.758;2023-08-06T01:16:23;100475.91;;;16.23;100.00
78373;BME280;67656;52.074;4.758;2023-08-06T01:21:24;100477.88;;;16.19;100.00
78373;BME280;67656;52.074;4.758;2023-08-06T01:26:30;100471.81;;;16.17;100.00
78373;BME280;67656;52.074;4.758;2023-08-06T01:31:41;100471.97;;;16.14;100.00
78373;BME280;67656;52.074;4.758;2023-08-06T01:36:43;100479.56;;;16.06;100.00
78373;BME280;67656;52.074;4.758;2023-08-06T01:41:44;100479.19;;;16.12;100.00
78373;BME280;67656;52.074;4.758;2023-08-06T01:46:44;100479.59;;;16.20;100.00
78373;BME280;67656;52.074;4.758;2023-08-06T01:51:44;100486.22;;;16.13;100.00
78373;BME280;67656;52.074;4.758;2023-08-06T01:56:45;100484.50;;;16.12;100.00
78373;BME280;67656;52.074;4.758;2023-08-06T02:01:45;100496.19;;;16.09;100.00
78373;BME280;67656;52.074;4.758;2023-08-06T02:06:46;100499.97;;;16.05;100.00
78373;BME280;67656;52.074;4.758;2023-08-06T02:11:46;100512.00;;;15.96;100.00
78373;BME280;67656;52.074;4.758;2023-08-06T02:16:47;100495.50;;;15.90;100.00
78373;BME280;67656;52.074;4.758;2023-08-06T02:21:47;100507.03;;;15.90;100.00
78373;BME280;67656;52.074;4.758;2023-08-06T02:26:47;100504.19;;;15.93;100.00
78373;BME280;67656;52.074;4.758;2023-08-06T02:31:48;100504.94;;;15.95;100.00
78373;BME280;67656;52.074;4.758;2023-08-06T02:36:48;100507.03;;;15.90;100.00
78373;BME280;67656;52.074;4.758;2023-08-06T02:41:48;100513.31;;;15.72;100.00
78373;BME280;67656;52.074;4.758;2023-08-06T02:46:49;100509.13;;;15.84;100.00
78373;BME280;67656;52.074;4.758;2023-08-06T02:51:49;100511.47;;;15.90;100.00
78373;BME280;67656;52.074;4.758;2023-08-06T02:56:50;100517.69;;;15.90;100.00
78373;BME280;67656;52.074;4.758;2023-08-06T03:01:57;100507.03;;;15.90;100.00
78373;BME280;67656;52.074;4.758;2023-08-06T03:07:05;100503.59;;;15.88;100.00
78373;BME280;67656;52.074;4.758;2023-08-06T03:12:14;100508.91;;;16.04;100.00
78373;BME280;67656;52.074;4.758;2023-08-06T03:17:15;100499.19;;;16.03;100.00
78373;BME280;67656;52.074;4.758;2023-08-06T03:22:16;100502.28;;;15.95;100.00
78373;BME280;67656;52.074;4.758;2023-08-06T03:27:16;100505.19;;;16.07;100.00
78373;BME280;67656;52.074;4.758;2023-08-06T03:32:17;100509.41;;;16.11;100.00
78373;BME280;67656;52.074;4.758;2023-08-06T03:37:18;100508.63;;;16.09;100.00
78373;BME280;67656;52.074;4.758;2023-08-06T03:42:18;100511.31;;;16.09;100.00
78373;BME280;67656;52.074;4.758;2023-08-06T03:47:19;100514.56;;;16.14;100.00
78373;BME280;67656;52.074;4.758;2023-08-06T03:52:23;100512.50;;;16.03;100.00
78373;BME280;67656;52.074;4.758;2023-08-06T03:57:23;100519.22;;;16.10;100.00
78373;BME280;67656;52.074;4.758;2023-08-06T04:02:23;100524.59;;;15.77;100.00
78373;BME280;67656;52.074;4.758;2023-08-06T04:07:24;100531.91;;;15.22;100.00
78373;BME280;67656;52.074;4.758;2023-08-06T04:12:25;100529.28;;;14.69;100.00
78373;BME280;67656;52.074;4.758;2023-08-06T04:17:26;100537.50;;;14.28;100.00
78373;BME280;67656;52.074;4.758;2023-08-06T04:22:26;100554.06;;;14.14;100.00
78373;BME280;67656;52.074;4.758;2023-08-06T04:27:26;100561.22;;;14.31;100.00
78373;BME280;67656;52.074;4.758;2023-08-06T04:32:27;100561.78;;;14.19;100.00
78373;BME280;67656;52.074;4.758;2023-08-06T04:37:29;100562.81;;;14.16;100.00
78373;BME280;67656;52.074;4.758;2023-08-06T04:42:29;100576.50;;;14.26;100.00
78373;BME280;67656;52.074;4.758;2023-08-06T04:47:30;100580.59;;;14.33;100.00
78373;BME280;67656;52.074;4.758;2023-08-06T04:52:30;100577.00;;;14.34;100.00
78373;BME280;67656;52.074;4.758;2023-08-06T04:57:30;100580.91;;;14.44;100.00
78373;BME280;67656;52.074;4.758;2023-08-06T05:02:31;100571.22;;;14.43;100.00
78373;BME280;67656;52.074;4.758;2023-08-06T05:07:31;100589.63;;;14.48;100.00
78373;BME280;67656;52.074;4.758;2023-08-06T05:12:31;100579.00;;;14.48;100.00
78373;BME280;67656;52.074;4.758;2023-08-06T05:17:32;100595.78;;;14.49;100.00
78373;BME280;67656;52.074;4.758;2023-08-06T05:22:32;100599.22;;;14.51;100.00
78373;BME280;67656;52.074;4.758;2023-08-06T05:27:32;100614.09;;;14.55;100.00
78373;BME280;67656;52.074;4.758;2023-08-06T05:32:33;100617.59;;;14.74;100.00
78373;BME280;67656;52.074;4.758;2023-08-06T05:37:33;100630.63;;;14.60;100.00
78373;BME280;67656;52.074;4.758;2023-08-06T05:42:33;100637.03;;;14.75;100.00
78373;BME280;67656;52.074;4.758;2023-08-06T05:47:34;100649.47;;;14.74;100.00
78373;BME280;67656;52.074;4.758;2023-08-06T05:52:34;100658.78;;;14.83;100.00
78373;BME280;67656;52.074;4.758;2023-08-06T05:57:34;100662.94;;;14.89;100.00
78373;BME280;67656;52.074;4.758;2023-08-06T06:02:35;100665.78;;;15.03;100.00
78373;BME280;67656;52.074;4.758;2023-08-06T06:07:35;100659.66;;;15.01;100.00
78373;BME280;67656;52.074;4.758;2023-08-06T06:12:37;100661.63;;;15.15;100.00
78373;BME280;67656;52.074;4.758;2023-08-06T06:17:38;100677.22;;;15.41;100.00
78373;BME280;67656;52.074;4.758;2023-08-06T06:22:38;100677.28;;;15.39;100.00
78373;BME280;67656;52.074;4.758;2023-08-06T06:27:39;100680.97;;;15.54;100.00
78373;BME280;67656;52.074;4.758;2023-08-06T06:32:39;100684.72;;;15.68;100.00
78373;BME280;67656;52.074;4.758;2023-08-06T06:37:39;100688.84;;;15.56;100.00
78373;BME280;67656;52.074;4.758;2023-08-06T06:42:40;100691.91;;;15.48;100.00
78373;BME280;67656;52.074;4.758;2023-08-06T06:47:42;100705.59;;;15.40;100.00
78373;BME280;67656;52.074;4.758;2023-08-06T06:52:42;100703.94;;;15.38;100.00
78373;BME280;67656;52.074;4.758;2023-08-06T06:57:42;100709.34;;;15.36;100.00
78373;BME280;67656;52.074;4.758;2023-08-06T07:02:43;100719.38;;;15.48;100.00
78373;BME280;67656;52.074;4.758;2023-08-06T07:07:43;100715.44;;;15.38;100.00
78373;BME280;67656;52.074;4.758;2023-08-06T07:12:43;100712.06;;;15.70;100.00
78373;BME280;67656;52.074;4.758;2023-08-06T07:17:44;100711.00;;;15.56;100.00
78373;BME280;67656;52.074;4.758;2023-08-06T07:22:44;100722.00;;;15.66;100.00
78373;BME280;67656;52.074;4.758;2023-08-06T07:27:45;100729.38;;;15.78;100.00
78373;BME280;67656;52.074;4.758;2023-08-06T07:32:45;100738.03;;;15.82;100.00
78373;BME280;67656;52.074;4.758;2023-08-06T07:37:47;100734.31;;;15.86;100.00
78373;BME280;67656;52.074;4.758;2023-08-06T07:42:47;100738.69;;;16.05;100.00
78373;BME280;67656;52.074;4.758;2023-08-06T07:47:47;100742.06;;;16.08;100.00
78373;BME280;67656;52.074;4.758;2023-08-06T07:52:48;100741.81;;;16.13;100.00
78373;BME280;67656;52.074;4.758;2023-08-06T07:57:48;100734.13;;;16.07;100.00
78373;BME280;67656;52.074;4.758;2023-08-06T08:02:50;100741.47;;;16.19;100.00
78373;BME280;67656;52.074;4.758;2023-08-06T08:07:51;100742.88;;;16.26;100.00
78373;BME280;67656;52.074;4.758;2023-08-06T08:12:51;100737.09;;;16.18;100.00
78373;BME280;67656;52.074;4.758;2023-08-06T08:17:52;100746.16;;;16.32;100.00
78373;BME280;67656;52.074;4.758;2023-08-06T08:22:52;100747.19;;;16.45;100.00
78373;BME280;67656;52.074;4.758;2023-08-06T08:27:56;100751.94;;;16.40;100.00
78373;BME280;67656;52.074;4.758;2023-08-06T08:32:56;100748.84;;;16.14;100.00
78373;BME280;67656;52.074;4.758;2023-08-06T08:37:56;100758.09;;;16.07;100.00
78373;BME280;67656;52.074;4.758;2023-08-06T08:43:01;100765.13;;;16.25;100.00
78373;BME280;67656;52.074;4.758;2023-08-06T08:48:02;100768.09;;;16.19;100.00
78373;BME280;67656;52.074;4.758;2023-08-06T08:53:02;100765.75;;;16.13;100.00
78373;BME280;67656;52.074;4.758;2023-08-06T08:58:03;100761.91;;;16.19;100.00
78373;BME280;67656;52.074;4.758;2023-08-06T09:03:06;100773.41;;;16.19;100.00
78373;BME280;67656;52.074;4.758;2023-08-06T09:08:08;100783.75;;;16.25;100.00
78373;BME280;67656;52.074;4.758;2023-08-06T09:13:11;100780.31;;;16.57;100.00
78373;BME280;67656;52.074;4.758;2023-08-06T09:18:11;100778.03;;;16.83;100.00
78373;BME280;67656;52.074;4.758;2023-08-06T09:23:12;100782.84;;;17.08;100.00
78373;BME280;67656;52.074;4.758;2023-08-06T09:28:12;100780.44;;;16.87;100.00
78373;BME280;67656;52.074;4.758;2023-08-06T09:33:17;100788.50;;;17.34;100.00
78373;BME280;67656;52.074;4.758;2023-08-06T09:38:18;100788.50;;;17.80;100.00
78373;BME280;67656;52.074;4.758;2023-08-06T09:43:19;100786.75;;;17.65;100.00
78373;BME280;67656;52.074;4.758;2023-08-06T09:48:24;100799.09;;;17.82;100.00
78373;BME280;67656;52.074;4.758;2023-08-06T09:53:24;100809.44;;;17.72;100.00
78373;BME280;67656;52.074;4.758;2023-08-06T09:58:25;100816.25;;;18.08;100.00
78373;BME280;67656;52.074;4.758;2023-08-06T10:03:27;100816.13;;;18.40;100.00
78373;BME280;67656;52.074;4.758;2023-08-06T10:08:28;100818.78;;;18.55;100.00
78373;BME280;67656;52.074;4.758;2023-08-06T10:13:28;100818.75;;;18.26;100.00
78373;BME280;67656;52.074;4.758;2023-08-06T10:18:29;100819.75;;;18.54;100.00
78373;BME280;67656;52.074;4.758;2023-08-06T10:23:34;100823.94;;;18.72;100.00
78373;BME280;67656;52.074;4.758;2023-08-06T10:28:37;100816.66;;;19.18;100.00
78373;BME280;67656;52.074;4.758;2023-08-06T10:33:46;100813.06;;;19.87;100.00
78373;BME280;67656;52.074;4.758;2023-08-06T10:38:48;100823.91;;;18.87;100.00
78373;BME280;67656;52.074;4.758;2023-08-06T10:43:49;100818.41;;;18.76;100.00
78373;BME280;67656;52.074;4.758;2023-08-06T10:48:50;100824.97;;;18.55;100.00
78373;BME280;67656;52.074;4.758;2023-08-06T10:53:51;100834.69;;;18.13;100.00
78373;BME280;67656;52.074;4.758;2023-08-06T10:58:53;100835.16;;;18.34;100.00
78373;BME280;67656;52.074;4.758;2023-08-06T11:03:54;100835.38;;;18.31;100.00
78373;BME280;67656;52.074;4.758;2023-08-06T11:08:54;100840.00;;;18.58;100.00
78373;BME280;67656;52.074;4.758;2023-08-06T11:13:55;100840.66;;;18.62;100.00
78373;BME280;67656;52.074;4.758;2023-08-06T11:18:55;100841.41;;;19.07;100.00
78373;BME280;67656;52.074;4.758;2023-08-06T11:23:56;100841.50;;;19.20;100.00
78373;BME280;67656;52.074;4.758;2023-08-06T11:28:57;100841.94;;;19.27;100.00
78373;BME280;67656;52.074;4.758;2023-08-06T11:33:58;100839.94;;;19.58;100.00
78373;BME280;67656;52.074;4.758;2023-08-06T11:39:01;100842.78;;;19.27;100.00
78373;BME280;67656;52.074;4.758;2023-08-06T11:44:02;100850.59;;;19.45;100.00
78373;BME280;67656;52.074;4.758;2023-08-06T11:49:03;100831.72;;;20.14;100.00
78373;BME280;67656;52.074;4.758;2023-08-06T11:54:03;100841.16;;;20.07;100.00
78373;BME280;67656;52.074;4.758;2023-08-06T11:59:03;100834.75;;;20.22;100.00
78373;BME280;67656;52.074;4.758;2023-08-06T12:04:04;100847.47;;;20.06;100.00
78373;BME280;67656;52.074;4.758;2023-08-06T12:09:04;100842.03;;;20.85;100.00
78373;BME280;67656;52.074;4.758;2023-08-06T12:14:05;100853.09;;;21.30;100.00
78373;BME280;67656;52.074;4.758;2023-08-06T12:19:05;100850.09;;;21.84;100.00
78373;BME280;67656;52.074;4.758;2023-08-06T12:24:06;100846.00;;;20.53;100.00
78373;BME280;67656;52.074;4.758;2023-08-06T12:29:06;100851.78;;;20.73;100.00
78373;BME280;67656;52.074;4.758;2023-08-06T12:34:06;100857.38;;;20.70;100.00
78373;BME280;67656;52.074;4.758;2023-08-06T12:39:07;100863.34;;;20.09;100.00
78373;BME280;67656;52.074;4.758;2023-08-06T12:44:07;100866.03;;;20.09;100.00
78373;BME280;67656;52.074;4.758;2023-08-06T12:49:08;100873.13;;;20.36;100.00
78373;BME280;67656;52.074;4.758;2023-08-06T12:54:08;100890.44;;;20.04;100.00
78373;BME280;67656;52.074;4.758;2023-08-06T12:59:08;100900.31;;;20.04;100.00
78373;BME280;67656;52.074;4.758;2023-08-06T13:04:09;100898.25;;;20.35;100.00
78373;BME280;67656;52.074;4.758;2023-08-06T13:09:10;100904.63;;;20.19;100.00
78373;BME280;67656;52.074;4.758;2023-08-06T13:14:11;100910.31;;;19.87;100.00
78373;BME280;67656;52.074;4.758;2023-08-06T13:19:12;100922.34;;;19.94;100.00
78373;BME280;67656;52.074;4.758;2023-08-06T13:24:12;100925.19;;;20.06;100.00
78373;BME280;67656;52.074;4.758;2023-08-06T13:29:12;100951.53;;;19.43;100.00
78373;BME280;67656;52.074;4.758;2023-08-06T13:34:13;100987.84;;;17.64;100.00
78373;BME280;67656;52.074;4.758;2023-08-06T13:39:13;100981.91;;;17.09;100.00
78373;BME280;67656;52.074;4.758;2023-08-06T13:44:14;100976.13;;;17.34;100.00
78373;BME280;67656;52.074;4.758;2023-08-06T13:49:17;100976.50;;;17.76;100.00
78373;BME280;67656;52.074;4.758;2023-08-06T13:54:17;100978.75;;;18.00;100.00
78373;BME280;67656;52.074;4.758;2023-08-06T13:59:18;100973.13;;;18.51;100.00
78373;BME280;67656;52.074;4.758;2023-08-06T14:04:18;101002.50;;;17.57;100.00
78373;BME280;67656;52.074;4.758;2023-08-06T14:09:18;101015.03;;;17.05;100.00
78373;BME280;67656;52.074;4.758;2023-08-06T14:14:19;101036.94;;;17.10;100.00
78373;BME280;67656;52.074;4.758;2023-08-06T14:19:19;101038.69;;;17.45;100.00
78373;BME280;67656;52.074;4.758;2023-08-06T14:24:20;101045.09;;;16.89;100.00
78373;BME280;67656;52.074;4.758;2023-08-06T14:29:20;101055.78;;;16.89;100.00
78373;BME280;67656;52.074;4.758;2023-08-06T14:34:21;101075.56;;;17.03;100.00
78373;BME280;67656;52.074;4.758;2023-08-06T14:39:22;101061.44;;;17.01;100.00
78373;BME280;67656;52.074;4.758;2023-08-06T14:44:22;101066.78;;;17.01;100.00
78373;BME280;67656;52.074;4.758;2023-08-06T14:49:23;101089.59;;;17.24;100.00
78373;BME280;67656;52.074;4.758;2023-08-06T14:54:23;101091.22;;;17.27;100.00
78373;BME280;67656;52.074;4.758;2023-08-06T14:59:24;101120.03;;;16.83;100.00
78373;BME280;67656;52.074;4.758;2023-08-06T15:04:24;101115.97;;;16.20;100.00
78373;BME280;67656;52.074;4.758;2023-08-06T15:09:25;101125.19;;;16.32;100.00
78373;BME280;67656;52.074;4.758;2023-08-06T15:14:25;101145.63;;;15.93;100.00
78373;BME280;67656;52.074;4.758;2023-08-06T15:19:26;101161.59;;;15.73;100.00
78373;BME280;67656;52.074;4.758;2023-08-06T15:24:26;101155.56;;;16.09;100.00
78373;BME280;67656;52.074;4.758;2023-08-06T15:29:26;101158.56;;;16.39;100.00
78373;BME280;67656;52.074;4.758;2023-08-06T15:34:27;101152.72;;;17.06;100.00
78373;BME280;67656;52.074;4.758;2023-08-06T15:39:27;101166.78;;;17.10;100.00
78373;BME280;67656;52.074;4.758;2023-08-06T15:44:28;101163.22;;;17.09;100.00
78373;BME280;67656;52.074;4.758;2023-08-06T15:49:28;101165.06;;;17.26;100.00
78373;BME280;67656;52.074;4.758;2023-08-06T15:54:29;101183.72;;;17.44;100.00
78373;BME280;67656;52.074;4.758;2023-08-06T15:59:31;101180.47;;;17.02;100.00
78373;BME280;67656;52.074;4.758;2023-08-06T16:04:32;101187.25;;;17.27;100.00
78373;BME280;67656;52.074;4.758;2023-08-06T16:09:32;101186.78;;;17.36;100.00
78373;BME280;67656;52.074;4.758;2023-08-06T16:14:32;101202.06;;;17.32;100.00
78373;BME280;67656;52.074;4.758;2023-08-06T16:19:33;101203.84;;;16.97;100.00
78373;BME280;67656;52.074;4.758;2023-08-06T16:24:34;101207.63;;;17.10;100.00
78373;BME280;67656;52.074;4.758;2023-08-06T16:29:36;101205.28;;;17.04;100.00
78373;BME280;67656;52.074;4.758;2023-08-06T16:34:38;101213.56;;;16.98;100.00
78373;BME280;67656;52.074;4.758;2023-08-06T16:39:38;101222.63;;;17.30;100.00
78373;BME280;67656;52.074;4.758;2023-08-06T16:44:38;101214.72;;;17.29;100.00
78373;BME280;67656;52.074;4.758;2023-08-06T16:49:39;101230.06;;;16.87;100.00
78373;BME280;67656;52.074;4.758;2023-08-06T16:54:39;101209.25;;;16.76;100.00
78373;BME280;67656;52.074;4.758;2023-08-06T16:59:39;101238.41;;;17.17;100.00
78373;BME280;67656;52.074;4.758;2023-08-06T17:04:40;101233.44;;;17.10;100.00
78373;BME280;67656;52.074;4.758;2023-08-06T17:09:40;101245.41;;;17.01;100.00
78373;BME280;67656;52.074;4.758;2023-08-06T17:14:41;101244.47;;;17.02;100.00
78373;BME280;67656;52.074;4.758;2023-08-06T17:19:44;101248.78;;;17.04;100.00
78373;BME280;67656;52.074;4.758;2023-08-06T17:24:45;101241.66;;;16.86;100.00
78373;BME280;67656;52.074;4.758;2023-08-06T17:29:45;101260.25;;;16.68;100.00
78373;BME280;67656;52.074;4.758;2023-08-06T17:34:45;101263.00;;;16.67;100.00
78373;BME280;67656;52.074;4.758;2023-08-06T17:39:46;101275.66;;;16.62;100.00
78373;BME280;67656;52.074;4.758;2023-08-06T17:44:46;101282.53;;;16.27;100.00
78373;BME280;67656;52.074;4.758;2023-08-06T17:49:46;101283.97;;;16.35;100.00
78373;BME280;67656;52.074;4.758;2023-08-06T17:54:47;101302.13;;;16.26;100.00
78373;BME280;67656;52.074;4.758;2023-08-06T17:59:47;101327.53;;;15.27;100.00
78373;BME280;67656;52.074;4.758;2023-08-06T18:04:48;101345.25;;;14.81;100.00
78373;BME280;67656;52.074;4.758;2023-08-06T18:09:48;101334.63;;;15.04;100.00
78373;BME280;67656;52.074;4.758;2023-08-06T18:14:49;101327.72;;;14.77;100.00
78373;BME280;67656;52.074;4.758;2023-08-06T18:19:49;101328.97;;;14.90;100.00
78373;BME280;67656;52.074;4.758;2023-08-06T18:24:49;101327.13;;;14.92;100.00
78373;BME280;67656;52.074;4.758;2023-08-06T18:29:50;101324.53;;;14.90;100.00
78373;BME280;67656;52.074;4.758;2023-08-06T18:34:52;101325.50;;;14.88;100.00
78373;BME280;67656;52.074;4.758;2023-08-06T18:39:53;101318.31;;;15.14;100.00
78373;BME280;67656;52.074;4.758;2023-08-06T18:44:53;101328.31;;;15.07;100.00
78373;BME280;67656;52.074;4.758;2023-08-06T18:49:54;101313.38;;;14.81;100.00
78373;BME280;67656;52.074;4.758;2023-08-06T18:54:54;101326.06;;;14.96;100.00
78373;BME280;67656;52.074;4.758;2023-08-06T18:59:55;101319.72;;;15.00;100.00
78373;BME280;67656;52.074;4.758;2023-08-06T19:04:56;101320.13;;;14.89;100.00
78373;BME280;67656;52.074;4.758;2023-08-06T19:09:56;101334.84;;;14.98;100.00
78373;BME280;67656;52.074;4.758;2023-08-06T19:14:57;101341.22;;;14.94;100.00
78373;BME280;67656;52.074;4.758;2023-08-06T19:19:57;101354.63;;;14.67;100.00
78373;BME280;67656;52.074;4.758;2023-08-06T19:24:58;101357.88;;;14.76;100.00
78373;BME280;67656;52.074;4.758;2023-08-06T19:29:58;101351.72;;;14.73;100.00
78373;BME280;67656;52.074;4.758;2023-08-06T19:34:58;101360.69;;;14.46;100.00
78373;BME280;67656;52.074;4.758;2023-08-06T19:39:59;101371.44;;;14.42;100.00
78373;BME280;67656;52.074;4.758;2023-08-06T19:44:59;101368.63;;;14.47;100.00
78373;BME280;67656;52.074;4.758;2023-08-06T19:50:00;101349.94;;;14.49;100.00
78373;BME280;67656;52.074;4.758;2023-08-06T19:55:00;101366.03;;;14.69;100.00
78373;BME280;67656;52.074;4.758;2023-08-06T20:00:00;101351.38;;;14.83;100.00
78373;BME280;67656;52.074;4.758;2023-08-06T20:05:01;101364.66;;;14.83;100.00
78373;BME280;67656;52.074;4.758;2023-08-06T20:10:02;101355.09;;;14.79;100.00
78373;BME280;67656;52.074;4.758;2023-08-06T20:15:02;101367.06;;;14.65;100.00
78373;BME280;67656;52.074;4.758;2023-08-06T20:20:03;101366.88;;;14.46;100.00
78373;BME280;67656;52.074;4.758;2023-08-06T20:25:04;101373.31;;;14.39;100.00
78373;BME280;67656;52.074;4.758;2023-08-06T20:30:05;101382.69;;;14.24;100.00
78373;BME280;67656;52.074;4.758;2023-08-06T20:35:06;101377.38;;;14.24;100.00
78373;BME280;67656;52.074;4.758;2023-08-06T20:40:08;101379.88;;;14.28;100.00
78373;BME280;67656;52.074;4.758;2023-08-06T20:45:08;101383.88;;;14.15;100.00
78373;BME280;67656;52.074;4.758;2023-08-06T20:50:09;101386.75;;;14.34;100.00
78373;BME280;67656;52.074;4.758;2023-08-06T20:55:09;101381.44;;;14.34;100.00
78373;BME280;67656;52.074;4.758;2023-08-06T21:00:12;101387.03;;;14.52;100.00
78373;BME280;67656;52.074;4.758;2023-08-06T21:05:13;101389.22;;;14.40;100.00
78373;BME280;67656;52.074;4.758;2023-08-06T21:10:13;101401.00;;;14.32;100.00
78373;BME280;67656;52.074;4.758;2023-08-06T21:15:13;101390.50;;;14.28;100.00
78373;BME280;67656;52.074;4.758;2023-08-06T21:20:14;101402.19;;;14.23;100.00
78373;BME280;67656;52.074;4.758;2023-08-06T21:25:14;101414.09;;;14.11;100.00
78373;BME280;67656;52.074;4.758;2023-08-06T21:30:15;101414.03;;;14.12;100.00
78373;BME280;67656;52.074;4.758;2023-08-06T21:35:15;101405.16;;;14.13;100.00
78373;BME280;67656;52.074;4.758;2023-08-06T21:40:15;101404.47;;;14.34;100.00
78373;BME280;67656;52.074;4.758;2023-08-06T21:45:16;101399.69;;;14.43;100.00
78373;BME280;67656;52.074;4.758;2023-08-06T21:50:16;101410.00;;;14.53;100.00
78373;BME280;67656;52.074;4.758;2023-08-06T21:55:17;101406.47;;;14.52;100.00
78373;BME280;67656;52.074;4.758;2023-08-06T22:00:17;101411.84;;;14.51;100.00
78373;BME280;67656;52.074;4.758;2023-08-06T22:05:18;101402.34;;;14.43;100.00
78373;BME280;67656;52.074;4.758;2023-08-06T22:10:18;101395.59;;;14.60;100.00
78373;BME280;67656;52.074;4.758;2023-08-06T22:15:19;101403.38;;;14.65;100.00
78373;BME280;67656;52.074;4.758;2023-08-06T22:20:19;101405.03;;;14.69;100.00
78373;BME280;67656;52.074;4.758;2023-08-06T22:25:19;101398.84;;;14.68;100.00
78373;BME280;67656;52.074;4.758;2023-08-06T22:30:20;101399.50;;;14.75;100.00
78373;BME280;67656;52.074;4.758;2023-08-06T22:35:20;101392.41;;;14.76;100.00
78373;BME280;67656;52.074;4.758;2023-08-06T22:40:21;101389.84;;;14.72;100.00
78373;BME280;67656;52.074;4.758;2023-08-06T22:45:21;101397.66;;;14.77;100.00
78373;BME280;67656;52.074;4.758;2023-08-06T22:50:22;101396.16;;;14.94;100.00
78373;BME280;67656;52.074;4.758;2023-08-06T22:55:22;101389.50;;;14.82;100.00
78373;BME280;67656;52.074;4.758;2023-08-06T23:00:22;101381.06;;;14.94;100.00
78373;BME280;67656;52.074;4.758;2023-08-06T23:05:23;101386.16;;;15.00;100.00
78373;BME280;67656;52.074;4.758;2023-08-06T23:10:23;101394.16;;;15.00;100.00
78373;BME280;67656;52.074;4.758;2023-08-06T23:15:24;101392.19;;;15.05;100.00
78373;BME280;67656;52.074;4.758;2023-08-06T23:20:24;101388.81;;;15.00;100.00
78373;BME280;67656;52.074;4.758;2023-08-06T23:25:24;101404.41;;;15.10;100.00
78373;BME280;67656;52.074;4.758;2023-08-06T23:30:25;101409.19;;;14.51;100.00
78373;BME280;67656;52.074;4.758;2023-08-06T23:35:25;101410.38;;;14.42;100.00
78373;BME280;67656;52.074;4.758;2023-08-06T23:40:26;101403.72;;;14.55;100.00
78373;BME280;67656;52.074;4.758;2023-08-06T23:45:26;101403.63;;;14.58;100.00
78373;BME280;67656;52.074;4.758;2023-08-06T23:50:26;101401.38;;;14.73;100.00
78373;BME280;67656;52.074;4.758;2023-08-06T23:55:28;101403.41;;;14.90;100.00
